Time;durP1;ratioP1;P1;durP2;ratioP2;P2;SDS_P1;SDS_P2;PMS_P1;PMS_P2;Temp;Humidity;BMP_temperature;BMP_pressure;BME280_temperature;BME280_humidity;BME280_pressure;Samples;Min_cycle;Max_cycle;Signal;HPM_P1;HPM_P2
2021/01/18 00:01:20;;;;;;;197.73;93.33;;;;;;;-10.06;64.47;100867.12;2825262;84;21172;-63
2021/01/18 00:05:24;;;;;;;171.57;83.80;;;;;;;-9.79;64.48;100864.45;2825358;84;21204;-62
2021/01/18 00:09:27;;;;;;;192.80;89.27;;;;;;;-9.57;63.45;100869.83;2825641;84;21132;-62
2021/01/18 00:13:30;;;;;;;209.43;99.97;;;;;;;-9.71;62.87;100865.38;2825649;84;21124;-62
2021/01/18 00:17:36;;;;;;;202.50;93.90;;;;;;;-10.00;63.19;100859.50;2825470;84;21152;-63
2021/01/18 00:21:45;;;;;;;146.72;73.05;;;;;;;-10.22;63.55;100859.23;2825749;84;21633;-64
2021/01/18 00:25:47;;;;;;;162.53;71.20;;;;;;;-10.49;63.76;100852.89;2825601;84;21136;-63
2021/01/18 00:29:50;;;;;;;195.20;91.93;;;;;;;-10.87;64.64;100851.91;2825582;84;21160;-62
2021/01/18 00:33:53;;;;;;;175.70;84.73;;;;;;;-11.14;65.42;100863.50;2825599;84;21148;-62
2021/01/18 00:37:56;;;;;;;208.57;103.37;;;;;;;-11.25;66.27;100863.72;2825683;84;21148;-63
2021/01/18 00:41:59;;;;;;;258.07;107.03;;;;;;;-11.11;66.57;100865.23;2821545;84;21172;-62
2021/01/18 00:46:03;;;;;;;165.40;85.80;;;;;;;-11.03;66.20;100866.23;2814909;84;21145;-63
2021/01/18 00:50:07;;;;;;;212.37;100.03;;;;;;;-11.08;65.28;100857.60;2815004;84;21152;-63
2021/01/18 00:54:10;;;;;;;141.00;69.40;;;;;;;-11.30;65.31;100856.37;2814855;84;21181;-63
2021/01/18 00:58:14;;;;;;;213.27;104.13;;;;;;;-11.46;65.46;100854.81;2815166;84;21208;-63
2021/01/18 01:02:17;;;;;;;197.70;95.67;;;;;;;-11.51;66.45;100853.87;2814944;84;21160;-62
2021/01/18 01:06:20;;;;;;;190.03;86.53;;;;;;;-11.38;66.25;100849.81;2814982;84;21172;-62
2021/01/18 01:10:33;;;;;;;226.73;102.57;;;;;;;-11.32;66.04;100845.20;2814897;84;21141;-63
2021/01/18 01:14:35;;;;;;;234.63;109.03;;;;;;;-11.24;66.56;100831.65;2815232;84;21176;-63
2021/01/18 01:18:38;;;;;;;219.43;107.17;;;;;;;-10.87;66.88;100830.06;2815117;83;21173;-63
2021/01/18 01:22:42;;;;;;;186.97;102.00;;;;;;;-10.54;66.06;100834.38;2814971;84;21172;-62
2021/01/18 01:26:45;;;;;;;215.63;102.60;;;;;;;-10.27;65.01;100844.14;2815137;84;21176;-62
2021/01/18 01:30:48;;;;;;;184.07;98.00;;;;;;;-10.14;63.83;100841.72;2814879;84;21145;-62
2021/01/18 01:34:51;;;;;;;209.67;93.13;;;;;;;-10.00;63.15;100840.19;2815017;84;21168;-62
2021/01/18 01:38:54;;;;;;;179.80;84.53;;;;;;;-9.93;62.43;100837.23;2814690;84;21164;-63
2021/01/18 01:43:00;;;;;;;186.70;92.73;;;;;;;-9.94;62.28;100823.52;2816773;84;21176;-61
2021/01/18 01:47:02;;;;;;;175.80;91.80;;;;;;;-9.86;62.33;100832.61;2843096;83;21173;-62
2021/01/18 01:51:08;;;;;;;190.40;82.33;;;;;;;-9.82;62.06;100828.38;2842895;83;21144;-62
2021/01/18 01:55:27;;;;;;;181.03;87.93;;;;;;;-9.92;62.22;100828.25;2843036;83;21160;-62
2021/01/18 01:59:32;;;;;;;172.07;75.83;;;;;;;-10.08;62.58;100826.34;2842920;83;21156;-63
2021/01/18 02:03:45;;;;;;;174.80;83.90;;;;;;;-10.07;63.34;100827.67;2842935;83;21167;-63
2021/01/18 02:07:48;;;;;;;171.03;85.93;;;;;;;-10.00;63.55;100827.32;2842745;83;21144;-64
2021/01/18 02:11:51;;;;;;;194.60;86.57;;;;;;;-9.96;63.63;100830.36;2842848;83;21128;-64
2021/01/18 02:16:21;;;;;;;202.80;91.47;;;;;;;-9.99;63.60;100834.60;2843129;83;21156;-64
2021/01/18 02:21:20;;;;;;;177.90;82.27;;;;;;;-9.98;63.65;100832.47;2812208;83;21149;-62
2021/01/18 02:25:34;;;;;;;186.60;86.13;;;;;;;-10.02;63.71;100834.16;2857049;82;21598;-63
2021/01/18 02:30:35;;;;;;;159.33;76.40;;;;;;;-9.84;64.38;100836.48;2871118;82;21175;-64
2021/01/18 02:35:12;;;;;;;170.40;83.63;;;;;;;-9.75;64.43;100829.71;2871098;82;21147;-63
2021/01/18 02:39:46;;;;;;;182.12;83.33;;;;;;;-9.71;64.34;100828.05;2846246;82;22213;-64
2021/01/18 02:43:58;;;;;;;178.03;81.33;;;;;;;-9.71;64.67;100825.47;2867731;82;21189;-65
2021/01/18 02:48:02;;;;;;;186.33;89.43;;;;;;;-9.56;64.63;100821.33;2866499;83;21147;-60
2021/01/18 02:52:10;;;;;;;171.80;84.07;;;;;;;-9.50;64.79;100817.09;2866251;83;21187;-63
2021/01/18 02:56:14;;;;;;;142.33;68.93;;;;;;;-9.38;64.79;100812.89;2866287;83;21545;-64
2021/01/18 03:00:23;;;;;;;149.30;74.13;;;;;;;-9.36;64.72;100808.61;2900170;82;21491;-64
2021/01/18 03:05:04;;;;;;;175.73;81.90;;;;;;;-9.36;65.03;100806.91;2900918;82;21619;-63
2021/01/18 03:09:38;;;;;;;167.87;85.67;;;;;;;-9.23;65.46;100792.41;2901543;82;21154;-63
2021/01/18 03:13:58;;;;;;;184.63;87.77;;;;;;;-9.09;64.79;100797.66;2901654;82;21150;-62
2021/01/18 03:18:02;;;;;;;154.73;80.03;;;;;;;-9.12;64.72;100789.91;2901758;82;21178;-64
2021/01/18 03:22:05;;;;;;;150.40;77.80;;;;;;;-9.06;64.85;100795.53;2902134;82;21609;-61
2021/01/18 03:26:09;;;;;;;163.40;78.93;;;;;;;-9.02;64.57;100801.59;2868391;81;21167;-63
2021/01/18 03:30:14;;;;;;;175.67;85.70;;;;;;;-8.91;64.71;100794.36;2865920;83;21187;-63
2021/01/18 03:34:19;;;;;;;156.80;78.63;;;;;;;-8.86;64.59;100792.23;2865905;83;21116;-64
2021/01/18 03:38:24;;;;;;;156.70;85.00;;;;;;;-8.90;64.37;100789.63;2865912;83;21119;-62
2021/01/18 03:42:27;;;;;;;151.73;77.00;;;;;;;-8.93;64.55;100783.17;2865833;82;21124;-63
2021/01/18 03:46:29;;;;;;;150.13;82.07;;;;;;;-8.94;64.66;100790.89;2865826;83;21193;-63
2021/01/18 03:50:33;;;;;;;145.57;78.50;;;;;;;-8.94;65.23;100785.32;2865671;83;21155;-64
2021/01/18 03:54:37;;;;;;;158.93;72.17;;;;;;;-8.85;65.28;100782.34;2865797;83;21166;-61
2021/01/18 03:58:39;;;;;;;118.37;57.20;;;;;;;-8.91;65.45;100781.47;2865911;83;21163;-63
2021/01/18 04:02:44;;;;;;;172.30;87.70;;;;;;;-9.00;66.44;100773.66;2873024;82;21152;-62
2021/01/18 04:06:47;;;;;;;164.33;81.27;;;;;;;-8.93;67.02;100777.14;2876359;82;21176;-63
2021/01/18 04:10:50;;;;;;;168.10;75.53;;;;;;;-8.72;67.27;100776.83;2876210;82;21149;-62
2021/01/18 04:14:55;;;;;;;144.77;72.37;;;;;;;-8.80;67.45;100778.95;2876106;82;21598;-62
2021/01/18 04:18:57;;;;;;;147.57;73.73;;;;;;;-8.77;67.77;100771.23;2876556;82;21120;-61
2021/01/18 04:23:05;;;;;;;203.17;133.37;;;;;;;-8.74;68.10;100767.81;2876452;82;21617;-63
2021/01/18 04:27:08;;;;;;;114.53;59.10;;;;;;;-8.64;68.32;100769.56;2876336;82;21164;-71
2021/01/18 04:31:11;;;;;;;156.17;65.13;;;;;;;-8.55;68.37;100766.17;2876443;82;21128;-71
2021/01/18 04:35:14;;;;;;;83.57;42.00;;;;;;;-8.63;68.43;100768.71;2876540;82;21184;-70
2021/01/18 04:39:18;;;;;;;140.30;74.67;;;;;;;-8.69;68.85;100763.94;2876517;82;21152;-68
2021/01/18 04:43:22;;;;;;;155.97;66.30;;;;;;;-8.58;69.39;100766.16;2876580;82;21197;-69
2021/01/18 04:47:27;;;;;;;163.37;72.30;;;;;;;-8.45;69.18;100764.46;2876297;82;21167;-67
2021/01/18 04:51:52;;;;;;;143.40;77.93;;;;;;;-8.21;69.44;100774.02;2876947;82;21152;-70
2021/01/18 04:56:06;;;;;;;118.23;56.87;;;;;;;-7.93;68.61;100760.33;2876539;82;21192;-69
2021/01/18 05:00:12;;;;;;;158.90;78.03;;;;;;;-7.80;67.84;100759.91;2876499;82;21151;-69
2021/01/18 05:04:27;;;;;;;121.80;55.83;;;;;;;-7.89;67.92;100755.14;2876493;82;21133;-68
2021/01/18 05:08:47;;;;;;;143.70;77.83;;;;;;;-7.80;67.50;100759.91;2876407;82;21160;-71
2021/01/18 05:12:51;;;;;;;154.97;79.57;;;;;;;-7.94;67.55;100752.15;2875520;82;21653;-69
2021/01/18 05:16:59;;;;;;;143.67;70.63;;;;;;;-7.70;67.76;100759.49;2876464;82;21152;-67
2021/01/18 05:21:05;;;;;;;125.60;63.47;;;;;;;-7.71;66.62;100763.78;2876258;82;21650;-71
2021/01/18 05:25:09;;;;;;;98.52;51.85;;;;;;;-7.79;66.34;100762.92;2876317;82;21136;-70
2021/01/18 05:29:12;;;;;;;160.63;75.93;;;;;;;-7.90;66.15;100761.17;2876602;82;21156;-70
2021/01/18 05:33:15;;;;;;;178.17;79.13;;;;;;;-7.90;67.04;100747.41;2876289;82;21156;-66
2021/01/18 05:37:19;;;;;;;181.50;88.57;;;;;;;-7.82;66.98;100740.52;2876135;82;21156;-69
2021/01/18 05:41:29;;;;;;;157.33;87.70;;;;;;;-7.52;66.48;100737.95;2876257;82;21152;-70
2021/01/18 05:45:36;;;;;;;184.93;81.30;;;;;;;-7.54;65.46;100747.44;2876180;81;21194;-70
2021/01/18 05:49:45;;;;;;;183.93;88.10;;;;;;;-7.95;65.49;100755.14;2876228;82;21125;-69
2021/01/18 05:53:48;;;;;;;145.53;66.90;;;;;;;-8.21;66.60;100744.75;2876358;82;21156;-71
2021/01/18 05:58:06;;;;;;;158.78;80.60;;;;;;;-8.31;66.78;100750.31;2876794;82;21160;-70
2021/01/18 06:02:09;;;;;;;183.10;94.97;;;;;;;-8.35;67.33;100743.42;2876340;82;21655;-70
2021/01/18 06:06:18;;;;;;;159.07;84.70;;;;;;;-8.29;67.10;100739.56;2876496;82;21128;-70
2021/01/18 06:10:34;;;;;;;164.93;81.10;;;;;;;-8.40;66.87;100736.95;2875409;82;21121;-72
2021/01/18 06:14:37;;;;;;;175.93;79.57;;;;;;;-8.56;67.41;100751.55;2876263;82;21120;-71
2021/01/18 06:18:41;;;;;;;193.43;94.30;;;;;;;-8.65;68.04;100742.46;2876492;82;21155;-71
2021/01/18 06:22:51;;;;;;;170.57;80.43;;;;;;;-8.77;68.29;100744.14;2876558;82;21160;-71
2021/01/18 06:27:05;;;;;;;176.73;92.27;;;;;;;-8.91;68.87;100750.52;3159981;75;22863;-69
2021/01/18 06:31:11;;;;;;;160.43;83.43;;;;;;;-8.93;69.36;100750.06;3117103;76;21090;-70
2021/01/18 06:35:21;;;;;;;150.65;72.92;;;;;;;-8.68;69.66;100744.62;2976521;80;21170;-68
2021/01/18 06:39:27;;;;;;;165.93;84.37;;;;;;;-8.39;68.90;100741.70;3030465;78;21160;-68
2021/01/18 06:43:30;;;;;;;118.00;62.70;;;;;;;-8.25;68.27;100739.15;2977420;78;21161;-68
2021/01/18 06:47:35;;;;;;;136.60;62.20;;;;;;;-8.05;67.66;100742.64;2974374;80;21100;-68
2021/01/18 06:51:41;;;;;;;134.00;66.17;;;;;;;-7.97;66.75;100745.25;2996927;79;21133;-69
2021/01/18 06:56:25;;;;;;;138.90;63.97;;;;;;;-7.96;66.34;100746.97;3030793;78;21086;-70
2021/01/18 07:00:30;;;;;;;127.73;66.23;;;;;;;-7.97;66.18;100743.95;2974175;80;21172;-70
2021/01/18 07:04:38;;;;;;;102.17;50.33;;;;;;;-7.92;66.50;100757.73;2996478;79;21588;-71
2021/01/18 07:08:42;;;;;;;123.53;57.80;;;;;;;-7.90;66.40;100761.17;3029863;78;21693;-69
2021/01/18 07:12:48;;;;;;;142.63;71.20;;;;;;;-7.97;66.49;100767.61;2974140;80;21097;-69
2021/01/18 07:16:52;;;;;;;128.93;69.50;;;;;;;-7.81;67.37;100755.16;3031259;78;21163;-70
2021/01/18 07:20:59;;;;;;;265.13;138.43;;;;;;;-7.47;67.16;100755.20;2974425;80;21128;-69
2021/01/18 07:25:03;;;;;;;;;;;;;;;-7.13;66.49;100756.89;3016995;78;21567;-69
2021/01/18 07:29:08;;;;;;;455.57;228.73;;;;;;;-6.85;65.72;100757.28;2993081;79;20126;-69
2021/01/18 07:33:17;;;;;;;402.80;218.10;;;;;;;-6.71;64.55;100755.94;2992937;79;21134;-68
2021/01/18 07:37:21;;;;;;;542.40;301.40;;;;;;;-6.63;64.59;100759.38;2992524;79;21162;-69
2021/01/18 07:41:37;;;;;;;553.50;310.33;;;;;;;-6.62;63.82;100751.59;2992019;79;21134;-69
2021/01/18 07:45:41;;;;;;;418.43;225.00;;;;;;;-6.64;63.84;100757.21;2992199;79;21552;-70
2021/01/18 07:49:47;;;;;;;348.97;196.57;;;;;;;-6.65;63.78;100756.78;2992024;79;21138;-72
2021/01/18 07:53:50;;;;;;;213.20;115.80;;;;;;;-6.64;64.04;100761.55;2992116;79;21134;-70
2021/01/18 07:57:53;;;;;;;281.53;149.13;;;;;;;-6.55;64.87;100761.50;2941752;79;21109;-71
2021/01/18 08:01:58;;;;;;;219.17;129.23;;;;;;;-6.33;65.04;100758.82;2939197;79;21602;-70
2021/01/18 08:06:09;;;;;;;164.53;84.27;;;;;;;-6.05;65.14;100753.52;2939145;80;21141;-70
2021/01/18 08:10:12;;;;;;;145.63;77.03;;;;;;;-5.92;65.46;100759.00;2939684;80;21116;-70
2021/01/18 08:14:19;;;;;;;160.43;88.50;;;;;;;-5.70;65.44;100758.86;2939215;80;21133;-71
2021/01/18 08:18:29;;;;;;;175.80;91.05;;;;;;;-5.45;65.53;100751.77;2939747;80;21136;-71
2021/01/18 08:22:32;;;;;;;191.45;95.50;;;;;;;-5.18;64.73;100748.94;2939560;79;21113;-71
2021/01/18 08:27:13;;;;;;;253.93;112.40;;;;;;;-5.02;63.91;100745.33;2966353;79;21120;-71
2021/01/18 08:31:16;;;;;;;257.97;123.80;;;;;;;-4.84;63.50;100739.53;2976176;80;21122;-71
2021/01/18 08:35:27;;;;;;;189.28;95.25;;;;;;;-4.79;62.91;100733.00;2976351;80;21090;-71
2021/01/18 08:39:29;;;;;;;206.75;92.78;;;;;;;-4.75;62.91;100738.58;2976160;80;21121;-71
2021/01/18 08:44:03;;;;;;;205.75;106.22;;;;;;;-4.64;62.69;100738.45;2976102;80;21166;-71
2021/01/18 08:48:08;;;;;;;168.87;93.55;;;;;;;-4.46;62.60;100745.14;2975039;79;21125;-71
2021/01/18 08:52:14;;;;;;;171.15;89.17;;;;;;;-4.38;62.08;100747.66;2976342;79;21168;-72
2021/01/18 08:56:28;;;;;;;189.50;97.35;;;;;;;-4.32;62.36;100747.59;2976193;80;21126;-71
2021/01/18 09:00:50;;;;;;;171.10;90.85;;;;;;;-4.27;62.96;100750.98;2976092;80;21145;-71
2021/01/18 09:04:53;;;;;;;192.95;98.35;;;;;;;-3.98;62.96;100748.87;2975917;79;21141;-70
2021/01/18 09:09:04;;;;;;;187.65;96.57;;;;;;;-3.75;62.27;100753.72;2976147;79;21422;-69
2021/01/18 09:13:09;;;;;;;191.15;102.85;;;;;;;-3.62;62.21;100751.36;2976122;80;21152;-71
2021/01/18 09:17:12;;;;;;;203.60;100.90;;;;;;;-3.56;61.71;100754.73;2975885;80;21105;-71
2021/01/18 09:21:18;;;;;;;380.02;208.78;;;;;;;-3.54;61.81;100759.47;2976239;78;21141;-69
2021/01/18 09:25:27;;;;;;;244.77;120.53;;;;;;;-3.47;61.69;100753.31;2976230;79;21164;-70
2021/01/18 09:29:30;;;;;;;215.60;103.10;;;;;;;-3.38;61.94;100747.09;2975839;78;21152;-71
2021/01/18 09:33:34;;;;;;;267.75;137.35;;;;;;;-3.39;62.22;100747.52;2976298;80;21129;-69
2021/01/18 09:37:46;;;;;;;440.25;238.30;;;;;;;-3.52;62.54;100746.88;2976049;80;21141;-70
2021/01/18 09:41:49;;;;;;;348.85;168.65;;;;;;;-3.40;62.30;100739.30;2975858;78;21113;-70
2021/01/18 09:45:56;;;;;;;302.22;162.97;;;;;;;-3.32;62.32;100730.95;2976093;80;21130;-70
2021/01/18 09:50:18;;;;;;;249.07;138.70;;;;;;;-3.25;62.33;100723.02;2975964;78;21145;-70
2021/01/18 09:54:21;;;;;;;239.68;133.52;;;;;;;-3.18;62.30;100719.41;2975804;80;21141;-70
2021/01/18 09:58:46;;;;;;;254.90;142.18;;;;;;;-3.03;61.96;100720.45;2976073;80;21090;-70
2021/01/18 10:02:51;;;;;;;350.95;200.05;;;;;;;-2.93;61.61;100713.32;2975742;78;21491;-72
2021/01/18 10:07:03;;;;;;;206.23;112.80;;;;;;;-2.93;62.01;100696.86;2975823;80;21130;-71
2021/01/18 10:11:07;;;;;;;168.52;87.65;;;;;;;-2.92;62.45;100700.72;2976048;79;21129;-69
2021/01/18 10:15:11;;;;;;;197.40;104.87;;;;;;;-3.11;62.70;100698.92;2948263;80;21137;-69
2021/01/18 10:19:18;;;;;;;135.43;78.30;;;;;;;-3.22;63.45;100713.86;2960203;80;21114;-70
2021/01/18 10:23:23;;;;;;;202.35;107.32;;;;;;;-3.34;63.86;100704.10;2976183;80;21109;-69
2021/01/18 10:27:29;;;;;;;193.55;102.90;;;;;;;-3.30;64.38;100699.67;2955420;79;21605;-69
2021/01/18 10:31:34;;;;;;;221.15;118.10;;;;;;;-3.30;64.38;100697.95;2950375;80;21539;-70
2021/01/18 10:35:39;;;;;;;257.18;145.45;;;;;;;-3.16;64.47;100690.31;2950775;80;21169;-70
2021/01/18 10:39:49;;;;;;;168.55;91.08;;;;;;;-3.04;65.11;100695.77;2951111;80;21097;-70
2021/01/18 10:43:53;;;;;;;168.65;83.17;;;;;;;-2.78;64.34;100699.60;2950666;80;21154;-70
2021/01/18 10:48:00;;;;;;;208.57;117.95;;;;;;;-2.89;64.23;100688.94;2950531;80;21152;-71
2021/01/18 10:52:12;;;;;;;190.97;108.35;;;;;;;-2.87;64.71;100679.34;2950772;79;21133;-70
2021/01/18 10:56:16;;;;;;;254.15;121.77;;;;;;;-2.48;64.78;100686.39;2950856;80;21096;-71
2021/01/18 11:00:23;;;;;;;173.25;95.07;;;;;;;-2.09;64.24;100676.41;2950688;80;21129;-69
2021/01/18 11:04:28;;;;;;;208.80;104.83;;;;;;;-1.85;62.72;100672.84;2950968;80;21136;-69
2021/01/18 11:08:31;;;;;;;261.32;138.40;;;;;;;-1.71;62.73;100679.02;2950511;80;21304;-70
2021/01/18 11:12:39;;;;;;;196.65;112.05;;;;;;;-1.56;62.54;100676.92;2950806;80;21908;-71
2021/01/18 11:16:42;;;;;;;247.37;131.52;;;;;;;-1.42;61.86;100664.83;2951246;80;21106;-70
2021/01/18 11:20:53;;;;;;;185.28;102.07;;;;;;;-1.33;61.76;100662.83;2929896;80;21073;-72
2021/01/18 11:24:55;;;;;;;305.05;165.80;;;;;;;-1.19;61.61;100665.50;2953375;80;21659;-70
2021/01/18 11:28:58;;;;;;;517.40;279.90;;;;;;;-1.22;61.35;100666.89;2976391;78;21588;-71
2021/01/18 11:33:02;;;;;;;449.27;240.45;;;;;;;-1.18;61.72;100658.08;2976780;80;21145;-70
2021/01/18 11:37:08;;;;;;;465.52;254.65;;;;;;;-1.09;61.64;100659.58;2976291;79;21160;-69
2021/01/18 11:41:12;;;;;;;332.40;170.38;;;;;;;-0.95;61.79;100650.92;2976439;80;21137;-70
2021/01/18 11:45:16;;;;;;;424.80;238.05;;;;;;;-0.80;61.85;100639.64;2975975;79;21170;-72
2021/01/18 11:49:19;;;;;;;695.57;412.12;;;;;;;-0.69;61.76;100641.94;2976265;78;21140;-69
2021/01/18 11:53:22;;;;;;;583.23;335.93;;;;;;;-0.57;61.87;100620.69;2976219;80;21106;-71
2021/01/18 11:57:25;;;;;;;556.00;314.02;;;;;;;-0.51;61.59;100610.03;2976302;79;21129;-70
2021/01/18 12:01:28;;;;;;;249.75;138.32;;;;;;;-0.41;62.05;100608.42;2976122;80;21575;-71
2021/01/18 12:05:32;;;;;;;216.70;103.55;;;;;;;-0.37;62.40;100598.30;2976242;78;21140;-71
2021/01/18 12:09:34;;;;;;;310.48;174.77;;;;;;;-0.32;62.46;100597.23;2976279;79;21129;-70
2021/01/18 12:13:37;;;;;;;276.37;146.43;;;;;;;-0.46;62.51;100591.14;2976185;80;21105;-71
2021/01/18 12:17:41;;;;;;;202.32;106.25;;;;;;;-0.39;63.22;100590.94;2976297;80;21070;-69
2021/01/18 12:21:44;;;;;;;195.22;116.55;;;;;;;-0.30;62.94;100595.89;2974672;80;21161;-69
2021/01/18 12:25:47;;;;;;;185.48;114.42;;;;;;;-0.32;63.22;100601.62;2974719;78;21152;-71
2021/01/18 12:29:50;;;;;;;298.75;179.30;;;;;;;-0.27;62.90;100597.09;2974824;80;21185;-70
2021/01/18 12:33:55;;;;;;;228.83;138.50;;;;;;;-0.11;63.56;100596.61;2974513;78;21105;-71
2021/01/18 12:37:57;;;;;;;186.95;105.25;;;;;;;0.06;63.27;100592.99;2974920;80;21129;-70
2021/01/18 12:42:03;;;;;;;170.85;97.00;;;;;;;0.19;62.92;100587.33;2974577;80;21141;-70
2021/01/18 12:46:06;;;;;;;138.25;88.72;;;;;;;0.33;62.97;100582.48;2974839;80;21571;-70
2021/01/18 12:50:10;;;;;;;165.73;96.17;;;;;;;0.41;62.67;100580.92;2975249;80;21140;-69
2021/01/18 12:54:14;;;;;;;211.00;131.47;;;;;;;0.43;62.73;100579.09;2974709;80;21595;-70
2021/01/18 12:58:17;;;;;;;189.57;112.42;;;;;;;0.45;62.88;100572.52;2974952;80;21137;-69
2021/01/18 13:02:19;;;;;;;156.10;98.37;;;;;;;0.36;63.04;100575.83;2974821;80;21121;-70
2021/01/18 13:06:43;;;;;;;185.52;110.68;;;;;;;0.31;63.40;100576.45;2974592;80;22262;-69
2021/01/18 13:10:46;;;;;;;232.80;134.57;;;;;;;0.30;63.68;100574.75;2974620;80;21148;-71
2021/01/18 13:14:49;;;;;;;192.40;107.17;;;;;;;0.24;64.09;100569.73;2974887;80;21397;-69
2021/01/18 13:18:53;;;;;;;157.03;90.75;;;;;;;0.15;64.26;100566.98;2999789;78;21400;-70
2021/01/18 13:22:55;;;;;;;191.88;112.80;;;;;;;-0.03;64.71;100561.89;3028596;78;21125;-70
2021/01/18 13:26:58;;;;;;;226.42;136.12;;;;;;;-0.15;65.52;100554.88;3028642;78;21149;-70
2021/01/18 13:31:02;;;;;;;216.38;120.30;;;;;;;-0.22;66.11;100559.05;3029114;78;21160;-69
2021/01/18 13:35:08;;;;;;;263.82;150.05;;;;;;;-0.27;66.75;100564.88;3028437;78;21141;-71
2021/01/18 13:39:11;;;;;;;271.73;160.25;;;;;;;-0.33;67.51;100563.31;3028500;78;21590;-70
2021/01/18 13:43:16;;;;;;;255.62;163.80;;;;;;;-0.35;68.03;100567.27;3028597;78;21149;-70
2021/01/18 13:47:18;;;;;;;193.80;114.82;;;;;;;-0.30;68.53;100566.66;3027983;78;22189;-70
2021/01/18 13:51:25;;;;;;;248.20;153.05;;;;;;;-0.25;69.04;100559.98;3028479;78;21140;-69
2021/01/18 13:55:27;;;;;;;203.63;119.33;;;;;;;-0.25;69.08;100559.98;3028599;78;21140;-67
2021/01/18 13:59:30;;;;;;;167.10;94.55;;;;;;;-0.18;69.32;100561.52;2979038;78;21149;-67
2021/01/18 14:03:34;;;;;;;181.07;106.87;;;;;;;-0.10;69.33;100559.93;2947014;78;21203;-68
2021/01/18 14:07:37;;;;;;;198.00;128.30;;;;;;;-0.05;69.60;100566.32;2974018;80;21097;-67
2021/01/18 14:11:43;;;;;;;169.47;101.70;;;;;;;-0.04;69.67;100561.05;2974204;78;21157;-68
2021/01/18 14:15:51;;;;;;;163.68;92.60;;;;;;;-0.01;69.92;100553.54;2974318;78;21622;-67
2021/01/18 14:19:54;;;;;;;171.25;98.75;;;;;;;0.00;69.97;100546.13;2974186;80;21148;-67
2021/01/18 14:24:03;;;;;;;156.28;95.72;;;;;;;-0.06;70.24;100547.17;2974500;80;21141;-67
2021/01/18 14:28:06;;;;;;;159.03;93.00;;;;;;;-0.09;70.58;100543.36;2963877;79;21157;-69
2021/01/18 14:32:10;;;;;;;169.07;96.75;;;;;;;-0.10;70.73;100536.86;2947228;80;21149;-72
2021/01/18 14:36:17;;;;;;;252.07;151.37;;;;;;;-0.19;70.98;100533.66;2948399;80;21141;-75
2021/01/18 14:40:20;;;;;;;312.95;168.17;;;;;;;-0.27;71.60;100533.05;2948450;80;21130;-72
2021/01/18 14:44:25;;;;;;;357.70;182.00;;;;;;;-0.29;71.93;100533.55;2948777;80;21149;-73
2021/01/18 14:48:28;;;;;;;245.60;144.20;;;;;;;-0.31;72.20;100530.97;2948961;80;21141;-66
2021/01/18 14:52:36;;;;;;;184.78;100.15;;;;;;;-0.31;72.75;100532.28;2948783;80;21588;-67
2021/01/18 14:56:39;;;;;;;236.82;133.47;;;;;;;-0.26;72.84;100527.38;2948747;80;21090;-72
2021/01/18 15:00:44;;;;;;;213.18;123.45;;;;;;;-0.36;73.50;100521.13;2948872;80;21555;-67
2021/01/18 15:04:49;;;;;;;138.72;80.77;;;;;;;-0.29;73.87;100524.39;2949367;80;21552;-69
2021/01/18 15:08:52;;;;;;;180.48;107.05;;;;;;;-0.25;74.03;100522.08;2948754;80;21145;-67
2021/01/18 15:12:55;;;;;;;295.57;172.95;;;;;;;-0.24;74.37;100530.32;2948933;80;21157;-66
2021/01/18 15:16:59;;;;;;;161.50;88.05;;;;;;;-0.25;74.64;100531.23;2948821;80;21153;-67
2021/01/18 15:21:03;;;;;;;172.75;97.70;;;;;;;-0.27;74.91;100526.50;2948757;80;21130;-66
2021/01/18 15:25:08;;;;;;;139.90;82.10;;;;;;;-0.24;75.32;100529.02;2948892;80;21129;-67
2021/01/18 15:29:11;;;;;;;141.60;84.05;;;;;;;-0.25;75.51;100523.38;2949310;80;21125;-71
2021/01/18 15:33:17;;;;;;;127.82;72.42;;;;;;;-0.26;75.80;100528.21;2907826;80;21149;-68
2021/01/18 15:37:19;;;;;;;125.92;70.55;;;;;;;-0.33;76.20;100525.41;2897482;82;21161;-66
2021/01/18 15:41:26;;;;;;;135.55;84.35;;;;;;;-0.35;76.82;100523.30;2897437;82;21595;-66
2021/01/18 15:45:29;;;;;;;201.67;114.90;;;;;;;-0.36;77.29;100524.20;2897785;82;21178;-66
2021/01/18 15:49:33;;;;;;;203.22;129.75;;;;;;;-0.30;77.80;100520.08;2913139;79;21352;-67
2021/01/18 15:53:36;;;;;;;205.77;122.22;;;;;;;-0.09;77.87;100520.27;2941225;80;21140;-65
2021/01/18 15:57:41;;;;;;;172.57;99.50;;;;;;;0.05;77.65;100515.42;2967141;79;21082;-65
2021/01/18 16:01:43;;;;;;;131.70;79.25;;;;;;;0.30;77.74;100516.34;2993711;79;21134;-67
2021/01/18 16:05:46;;;;;;;128.20;83.78;;;;;;;0.55;77.34;100505.81;2993907;79;21090;-66
2021/01/18 16:09:49;;;;;;;116.15;72.35;;;;;;;0.66;76.73;100506.29;2993848;79;21167;-67
2021/01/18 16:13:52;;;;;;;128.53;81.35;;;;;;;0.80;76.47;100507.55;2970824;79;21114;-64
2021/01/18 16:17:55;;;;;;;121.60;79.07;;;;;;;0.93;76.36;100504.00;2993771;79;21169;-65
2021/01/18 16:21:58;;;;;;;134.85;81.32;;;;;;;1.01;75.75;100501.93;2993769;79;21146;-66
2021/01/18 16:26:01;;;;;;;133.05;81.00;;;;;;;0.85;75.63;100489.88;2993405;79;21153;-65
2021/01/18 16:30:08;;;;;;;124.70;77.92;;;;;;;0.83;76.33;100499.57;3010173;79;21109;-65
2021/01/18 16:34:11;;;;;;;;;;;;;;;0.83;76.44;100498.27;3013751;79;21161;-65
2021/01/18 16:38:15;;;;;;;138.12;83.22;;;;;;;0.79;76.65;100487.04;3010200;79;20176;-65
2021/01/18 16:42:20;;;;;;;119.45;76.65;;;;;;;0.79;76.82;100487.51;3010478;79;21411;-65
2021/01/18 16:46:25;;;;;;;129.70;76.85;;;;;;;0.81;76.95;100485.21;3010354;79;21130;-66
2021/01/18 16:50:28;;;;;;;159.85;90.12;;;;;;;0.79;77.08;100489.66;3010212;79;21106;-66
2021/01/18 16:54:33;;;;;;;117.53;76.15;;;;;;;0.85;77.22;100484.65;3010422;79;21129;-65
2021/01/18 16:58:37;;;;;;;136.47;82.57;;;;;;;0.81;77.10;100485.69;3010216;79;21715;-65
2021/01/18 17:02:41;;;;;;;135.55;78.15;;;;;;;0.79;77.64;100480.49;3010326;79;21117;-65
2021/01/18 17:06:49;;;;;;;108.80;69.77;;;;;;;0.80;77.64;100480.89;3010168;79;21104;-65
2021/01/18 17:10:52;;;;;;;116.12;65.30;;;;;;;0.87;77.58;100481.52;3010548;79;21070;-66
2021/01/18 17:14:55;;;;;;;115.85;70.12;;;;;;;0.87;77.55;100484.13;3010256;79;21134;-65
2021/01/18 17:18:59;;;;;;;111.35;63.23;;;;;;;0.70;77.71;100487.40;3010888;79;21137;-66
2021/01/18 17:23:03;;;;;;;113.42;69.03;;;;;;;0.59;78.50;100485.19;3010919;79;21584;-66
2021/01/18 17:27:07;;;;;;;122.02;72.22;;;;;;;0.59;78.91;100486.49;3010052;79;22161;-66
2021/01/18 17:31:11;;;;;;;131.60;83.78;;;;;;;0.65;79.21;100481.45;3009721;79;21141;-66
2021/01/18 17:35:15;;;;;;;139.05;86.12;;;;;;;0.69;79.50;100481.77;3010040;79;21157;-67
2021/01/18 17:39:19;;;;;;;155.40;91.02;;;;;;;0.79;79.29;100487.04;3010228;79;21117;-65
2021/01/18 17:43:22;;;;;;;141.85;79.77;;;;;;;0.68;79.80;100475.66;3010145;79;21611;-65
2021/01/18 17:47:29;;;;;;;155.93;82.15;;;;;;;0.68;79.80;100475.66;3010328;79;22231;-65
2021/01/18 17:51:32;;;;;;;257.75;126.35;;;;;;;0.66;79.89;100476.62;3010072;79;21106;-65
2021/01/18 17:55:36;;;;;;;175.57;103.40;;;;;;;0.59;80.13;100476.46;3010237;79;21161;-66
2021/01/18 17:59:40;;;;;;;205.20;127.60;;;;;;;0.67;80.87;100470.47;3010034;79;21145;-66
2021/01/18 18:03:43;;;;;;;221.25;125.42;;;;;;;0.74;80.69;100468.48;3010318;79;21094;-65
2021/01/18 18:07:46;;;;;;;236.65;135.00;;;;;;;0.79;80.42;100470.48;3010443;79;21138;-65
2021/01/18 18:11:50;;;;;;;166.90;96.47;;;;;;;0.87;80.68;100467.11;3009902;79;21169;-66
2021/01/18 18:15:53;;;;;;;136.03;81.37;;;;;;;0.90;80.23;100464.36;3010072;79;21584;-67
2021/01/18 18:19:56;;;;;;;139.37;81.10;;;;;;;0.84;80.49;100463.30;3009594;79;21105;-65
2021/01/18 18:23:59;;;;;;;150.95;81.70;;;;;;;0.77;80.94;100459.19;3010163;79;21133;-66